Time;durP1;ratioP1;P1;durP2;ratioP2;P2;SDS_P1;SDS_P2;PMS_P1;PMS_P2;Temp;Humidity;BMP_temperature;BMP_pressure;BME280_temperature;BME280_humidity;BME280_pressure;Samples;Min_cycle;Max_cycle;Signal;HPM_P1;HPM_P2
2020/12/11 00:00:21;;;;;;;9.93;1.80;;;12.30;99.90;;;;;;5050034;28;20137;-89
2020/12/11 00:02:53;;;;;;;15.13;1.80;;;12.30;99.90;;;;;;5063546;28;20059;-89
2020/12/11 00:05:26;;;;;;;13.20;1.95;;;12.30;99.90;;;;;;5070026;28;20109;-89
2020/12/11 00:07:58;;;;;;;14.05;1.75;;;12.30;99.90;;;;;;5064612;28;20053;-89
2020/12/11 00:10:32;;;;;;;12.15;1.75;;;12.30;99.90;;;;;;5057689;28;20390;-89
2020/12/11 00:13:05;;;;;;;17.77;2.15;;;12.30;99.90;;;;;;5054401;28;20049;-89
2020/12/11 00:15:38;;;;;;;13.45;1.95;;;12.30;99.90;;;;;;5069537;28;20061;-89
2020/12/11 00:18:10;;;;;;;12.30;2.13;;;12.30;99.90;;;;;;5057741;28;20433;-89
2020/12/11 00:20:43;;;;;;;12.20;2.00;;;12.30;99.90;;;;;;5054967;28;20045;-87
2020/12/11 00:23:15;;;;;;;10.13;1.95;;;12.30;99.90;;;;;;5058658;28;20474;-89
2020/12/11 00:25:45;;;;;;;9.95;1.10;;;12.30;99.90;;;;;;5066709;28;20103;-89
2020/12/11 00:28:16;;;;;;;5.82;1.13;;;12.30;99.90;;;;;;5068303;28;20408;-89
2020/12/11 00:30:49;;;;;;;8.98;1.05;;;12.30;99.90;;;;;;5067794;28;20158;-89
2020/12/11 00:33:19;;;;;;;6.80;0.90;;;12.30;99.90;;;;;;5057038;28;20437;-89
2020/12/11 00:35:51;;;;;;;8.50;1.13;;;12.30;99.90;;;;;;5054859;28;20129;-89
2020/12/11 00:38:20;;;;;;;8.77;1.30;;;12.30;99.90;;;;;;5055677;28;20056;-89
2020/12/11 00:40:54;;;;;;;8.20;1.05;;;12.30;99.90;;;;;;5055679;28;20094;-89
2020/12/11 00:43:27;;;;;;;9.95;1.50;;;12.30;99.90;;;;;;5055858;28;20049;-88
2020/12/11 00:45:59;;;;;;;13.52;1.50;;;12.40;99.90;;;;;;5053849;28;20049;-89
2020/12/11 00:48:31;;;;;;;10.70;1.23;;;12.40;99.90;;;;;;5070054;28;20067;-89
2020/12/11 00:51:00;;;;;;;9.20;1.40;;;12.40;99.90;;;;;;5054787;28;20053;-89
2020/12/11 00:53:30;;;;;;;11.75;1.98;;;12.40;99.90;;;;;;5054079;28;20419;-89
2020/12/11 00:56:01;;;;;;;10.10;1.52;;;12.40;99.90;;;;;;5046147;28;20057;-89
2020/12/11 00:58:31;;;;;;;15.80;2.20;;;12.40;99.90;;;;;;5056945;28;20059;-89
2020/12/11 01:01:00;;;;;;;14.27;2.53;;;12.40;99.90;;;;;;5052468;28;20056;-89
2020/12/11 01:03:32;;;;;;;17.98;2.13;;;12.40;99.90;;;;;;5067278;28;20059;-90
2020/12/11 01:06:05;;;;;;;16.05;2.85;;;12.40;99.90;;;;;;5068146;28;20097;-89
2020/12/11 01:08:36;;;;;;;19.88;3.20;;;12.40;99.90;;;;;;5063553;28;20123;-89
2020/12/11 01:11:08;;;;;;;22.05;2.22;;;12.40;99.90;;;;;;5068487;28;20098;-88
2020/12/11 01:13:41;;;;;;;17.00;2.45;;;12.40;99.90;;;;;;5068869;28;20091;-89
2020/12/11 01:16:14;;;;;;;18.42;2.78;;;12.40;99.90;;;;;;5069580;28;20541;-89
2020/12/11 01:18:52;;;;;;;16.33;2.97;;;12.40;99.90;;;;;;5071008;28;20135;-89
2020/12/11 01:21:23;;;;;;;19.65;2.67;;;12.40;99.90;;;;;;5066646;28;20382;-89
2020/12/11 01:23:56;;;;;;;24.50;2.80;;;12.40;99.90;;;;;;5064104;28;20174;-89
2020/12/11 01:26:28;;;;;;;23.95;3.42;;;12.40;99.90;;;;;;5064313;28;20055;-89
2020/12/11 01:28:58;;;;;;;22.38;2.97;;;12.40;99.90;;;;;;5067162;28;20076;-88
2020/12/11 01:31:30;;;;;;;25.92;3.78;;;12.40;99.90;;;;;;5066108;28;20048;-89
2020/12/11 01:34:01;;;;;;;26.25;3.25;;;12.40;99.90;;;;;;5041124;28;20064;-88
2020/12/11 01:36:34;;;;;;;19.35;3.13;;;12.40;99.90;;;;;;5057748;28;20442;-89
2020/12/11 01:39:10;;;;;;;25.52;3.17;;;12.40;99.90;;;;;;5059432;28;20064;-89
2020/12/11 01:41:41;;;;;;;30.90;4.43;;;12.40;99.90;;;;;;5065202;28;20429;-89
2020/12/11 01:44:14;;;;;;;35.63;3.65;;;12.50;99.90;;;;;;5069331;28;20124;-89
2020/12/11 01:46:46;;;;;;;32.47;3.47;;;12.40;99.90;;;;;;5069765;28;20095;-89
2020/12/11 01:49:18;;;;;;;28.92;4.38;;;12.40;99.90;;;;;;5057995;28;20063;-89
2020/12/11 01:51:52;;;;;;;36.38;3.97;;;12.40;99.90;;;;;;5054265;28;20073;-89
2020/12/11 01:54:22;;;;;;;25.23;4.03;;;12.40;99.90;;;;;;5069063;28;20057;-90
2020/12/11 01:57:04;;;;;;;26.48;3.15;;;12.40;99.90;;;;;;5066375;28;20068;-90
2020/12/11 01:59:41;;;;;;;22.38;2.78;;;12.40;99.90;;;;;;5061778;28;20091;-89
2020/12/11 02:02:15;;;;;;;18.58;2.85;;;12.40;99.90;;;;;;5067218;28;20096;-89
2020/12/11 02:04:48;;;;;;;25.55;3.13;;;12.40;99.90;;;;;;5070643;28;20102;-89
2020/12/11 02:07:20;;;;;;;29.80;3.67;;;12.40;99.90;;;;;;5072310;28;20064;-89
2020/12/11 02:09:53;;;;;;;40.55;4.82;;;12.40;99.90;;;;;;5071504;28;20053;-88
2020/12/11 02:12:25;;;;;;;36.38;4.65;;;12.40;99.90;;;;;;5057518;28;20076;-89
2020/12/11 02:14:55;;;;;;;53.75;6.00;;;12.40;99.90;;;;;;5065899;28;20066;-89
2020/12/11 02:17:28;;;;;;;43.30;5.55;;;12.40;99.90;;;;;;5071256;28;20127;-89
2020/12/11 02:20:00;;;;;;;49.22;4.93;;;12.40;99.90;;;;;;5065813;28;20458;-89
2020/12/11 02:22:31;;;;;;;47.53;6.13;;;12.40;99.90;;;;;;5056718;28;20056;-89
2020/12/11 02:25:04;;;;;;;50.13;5.47;;;12.40;99.90;;;;;;5055867;28;20048;-89
2020/12/11 02:27:34;;;;;;;44.80;5.22;;;12.30;99.90;;;;;;5068742;28;20430;-89
2020/12/11 02:30:06;;;;;;;61.75;6.13;;;12.30;99.90;;;;;;5071629;28;20079;-89
2020/12/11 02:32:39;;;;;;;43.13;4.93;;;12.40;99.90;;;;;;5062037;28;20052;-89
2020/12/11 02:35:09;;;;;;;52.97;6.38;;;12.40;99.90;;;;;;5060075;28;20104;-89
2020/12/11 02:37:41;;;;;;;54.17;6.22;;;12.40;99.90;;;;;;5070399;28;20049;-89
2020/12/11 02:40:17;;;;;;;46.17;5.60;;;12.40;99.90;;;;;;5057419;28;20398;-89
2020/12/11 02:42:47;;;;;;;51.67;6.07;;;12.40;99.90;;;;;;5054173;28;20049;-89
2020/12/11 02:45:19;;;;;;;51.05;5.63;;;12.40;99.90;;;;;;5066715;28;20108;-89
2020/12/11 02:47:49;;;;;;;43.38;5.80;;;12.40;99.90;;;;;;5058411;28;20059;-89
2020/12/11 02:50:21;;;;;;;49.53;6.32;;;12.40;99.90;;;;;;5061460;28;20436;-89
2020/12/11 02:52:52;;;;;;;57.65;6.28;;;12.40;99.90;;;;;;5067487;28;20052;-90
2020/12/11 02:55:23;;;;;;;54.83;6.55;;;12.40;99.90;;;;;;5069313;28;20048;-90
2020/12/11 02:57:56;;;;;;;61.95;7.03;;;12.40;99.90;;;;;;5056683;28;20048;-89
2020/12/11 03:00:27;;;;;;;51.83;6.40;;;12.50;99.90;;;;;;5067073;28;20092;-89
2020/12/11 03:03:00;;;;;;;50.53;5.63;;;12.40;99.90;;;;;;5070468;28;20056;-89
2020/12/11 03:05:30;;;;;;;58.80;6.70;;;12.40;99.90;;;;;;5069063;28;20044;-89
2020/12/11 03:08:02;;;;;;;54.05;5.88;;;12.40;99.90;;;;;;5065588;28;20143;-89
2020/12/11 03:10:34;;;;;;;54.25;6.20;;;12.50;99.90;;;;;;5071188;28;21897;-89
2020/12/11 03:13:06;;;;;;;52.08;5.40;;;12.50;99.90;;;;;;5055891;28;20128;-89
2020/12/11 03:15:45;;;;;;;61.55;6.03;;;12.50;99.90;;;;;;5054560;28;20406;-89
2020/12/11 03:18:20;;;;;;;50.08;5.28;;;12.50;99.90;;;;;;5070034;28;20048;-89
2020/12/11 03:20:53;;;;;;;49.17;6.03;;;12.50;99.90;;;;;;5067862;28;20054;-89
2020/12/11 03:23:24;;;;;;;51.55;5.70;;;12.50;99.90;;;;;;5068378;28;20143;-89
2020/12/11 03:25:57;;;;;;;50.38;6.35;;;12.50;99.90;;;;;;5067670;28;20080;-89
2020/12/11 03:28:28;;;;;;;60.60;6.70;;;12.50;99.90;;;;;;5069904;28;20068;-89
2020/12/11 03:30:58;;;;;;;47.97;5.80;;;12.50;99.90;;;;;;5068206;28;20470;-88
2020/12/11 03:33:30;;;;;;;59.63;6.38;;;12.50;99.90;;;;;;5089563;28;20058;-88
2020/12/11 03:36:00;;;;;;;58.85;6.00;;;12.50;99.90;;;;;;5056118;28;20075;-89
2020/12/11 03:38:31;;;;;;;49.75;5.65;;;12.50;99.90;;;;;;5054173;28;20455;-89
2020/12/11 03:41:00;;;;;;;;;;;12.50;99.90;;;;;;5058009;28;20128;-89
2020/12/11 03:43:35;;;;;;;46.15;5.07;;;12.40;99.90;;;;;;5082745;28;19970;-89
2020/12/11 03:46:04;;;;;;;39.13;4.95;;;12.40;99.90;;;;;;5070072;28;20076;-89
2020/12/11 03:48:36;;;;;;;37.47;3.78;;;12.40;99.90;;;;;;5055691;28;20057;-89
2020/12/11 03:51:05;;;;;;;45.63;4.88;;;12.40;99.90;;;;;;5059597;28;20132;-89
2020/12/11 03:53:38;;;;;;;34.55;3.95;;;12.40;99.90;;;;;;5062316;28;20040;-89
2020/12/11 03:56:12;;;;;;;29.15;4.68;;;12.30;99.90;;;;;;5060684;28;20083;-89
2020/12/11 03:58:44;;;;;;;32.90;4.25;;;12.30;99.90;;;;;;5058819;28;20044;-89
2020/12/11 04:01:16;;;;;;;36.67;5.03;;;12.30;99.90;;;;;;5059454;28;20104;-89
2020/12/11 04:03:51;;;;;;;36.80;4.05;;;12.30;99.90;;;;;;5053632;28;20649;-89
2020/12/11 04:06:26;;;;;;;32.78;4.13;;;12.30;99.90;;;;;;5066534;28;20109;-89
2020/12/11 04:08:57;;;;;;;36.97;4.45;;;12.30;99.90;;;;;;5055482;28;20541;-88
2020/12/11 04:11:27;;;;;;;42.35;4.65;;;12.30;99.90;;;;;;5055616;28;20060;-89
2020/12/11 04:13:58;;;;;;;38.55;4.43;;;12.30;99.90;;;;;;5056194;28;20433;-89
2020/12/11 04:16:30;;;;;;;37.83;4.60;;;12.30;99.90;;;;;;5072488;28;20052;-89
2020/12/11 04:19:02;;;;;;;41.67;5.22;;;12.30;99.90;;;;;;5070385;28;20057;-89
2020/12/11 04:21:35;;;;;;;36.30;4.63;;;12.30;99.90;;;;;;5057124;28;20053;-88
2020/12/11 04:24:04;;;;;;;45.42;4.95;;;12.30;99.90;;;;;;5055937;28;20045;-89
2020/12/11 04:26:38;;;;;;;40.50;4.95;;;12.30;99.90;;;;;;5064111;28;20371;-89
2020/12/11 04:29:09;;;;;;;48.40;5.60;;;12.30;99.90;;;;;;5063609;28;20045;-89
2020/12/11 04:31:41;;;;;;;48.33;5.18;;;12.30;99.90;;;;;;5042299;28;20102;-89
2020/12/11 04:34:15;;;;;;;41.45;5.45;;;12.30;99.90;;;;;;5054620;28;20055;-89
2020/12/11 04:36:53;;;;;;;46.22;5.90;;;12.30;99.90;;;;;;5071351;28;20131;-89
2020/12/11 04:39:27;;;;;;;43.67;6.18;;;12.30;99.90;;;;;;5059031;28;20425;-89
2020/12/11 04:41:58;;;;;;;49.63;6.35;;;12.30;99.90;;;;;;5068823;28;20052;-89
2020/12/11 04:44:31;;;;;;;54.55;6.47;;;12.30;99.90;;;;;;5059319;28;20045;-89
2020/12/11 04:47:07;;;;;;;52.15;7.13;;;12.30;99.90;;;;;;5056807;28;20064;-88
2020/12/11 04:49:41;;;;;;;54.70;6.22;;;12.30;99.90;;;;;;5054509;28;20048;-90
2020/12/11 04:52:18;;;;;;;66.00;7.90;;;12.30;99.90;;;;;;5058427;28;20041;-90
2020/12/11 04:54:51;;;;;;;49.38;6.90;;;12.30;99.90;;;;;;5068606;28;20056;-89
2020/12/11 04:57:26;;;;;;;71.60;7.80;;;12.30;99.90;;;;;;5058302;28;20087;-89
2020/12/11 04:59:58;;;;;;;72.40;7.95;;;12.30;99.90;;;;;;5055371;28;20053;-89
2020/12/11 05:02:28;;;;;;;72.85;8.45;;;12.30;99.90;;;;;;5060162;28;20555;-90
2020/12/11 05:05:00;;;;;;;77.53;8.13;;;12.30;99.90;;;;;;5057877;28;20099;-89
2020/12/11 05:07:31;;;;;;;69.05;7.97;;;12.30;99.90;;;;;;5067830;28;20383;-89
2020/12/11 05:10:01;;;;;;;53.92;7.22;;;12.30;99.90;;;;;;5074394;28;20080;-89
2020/12/11 05:12:34;;;;;;;66.70;7.90;;;12.30;99.90;;;;;;5059180;28;20049;-89
2020/12/11 05:15:09;;;;;;;71.80;8.88;;;12.30;99.90;;;;;;5058483;28;20052;-89
2020/12/11 05:17:43;;;;;;;68.82;8.30;;;12.30;99.90;;;;;;5066144;28;20049;-90
2020/12/11 05:20:14;;;;;;;66.78;8.02;;;12.30;99.90;;;;;;5064775;28;20067;-90
2020/12/11 05:22:48;;;;;;;66.40;8.75;;;12.30;99.90;;;;;;5060306;28;20132;-90
2020/12/11 05:25:25;;;;;;;68.93;8.07;;;12.30;99.90;;;;;;5058947;28;20072;-89
2020/12/11 05:28:01;;;;;;;37.70;5.77;;;12.30;99.90;;;;;;5072133;28;20467;-89
2020/12/11 05:30:33;;;;;;;46.97;6.03;;;12.20;99.90;;;;;;5069316;28;20075;-89
2020/12/11 05:33:07;;;;;;;50.67;6.80;;;12.00;99.90;;;;;;5058282;28;20049;-89
2020/12/11 05:35:38;;;;;;;35.67;6.30;;;11.90;99.90;;;;;;5057603;28;20391;-89
2020/12/11 05:38:12;;;;;;;24.75;4.50;;;11.80;99.90;;;;;;5059727;28;20123;-89
2020/12/11 05:40:44;;;;;;;34.33;5.93;;;11.60;99.90;;;;;;5043443;28;20045;-89
2020/12/11 05:43:25;;;;;;;30.70;4.07;;;11.60;99.90;;;;;;5040097;28;20067;-88
2020/12/11 05:46:00;;;;;;;22.88;3.88;;;11.50;99.90;;;;;;5055249;28;20063;-86
2020/12/11 05:48:39;;;;;;;29.77;4.18;;;11.40;99.90;;;;;;5057630;28;20044;-90
2020/12/11 05:51:21;;;;;;;30.20;4.85;;;11.40;99.90;;;;;;5047994;28;20053;-91
2020/12/11 05:54:11;;;;;;;33.00;4.55;;;11.30;99.90;;;;;;5059211;28;20057;-91
2020/12/11 05:56:47;;;;;;;32.58;4.03;;;11.30;99.90;;;;;;5047392;28;20055;-90
2020/12/11 05:59:25;;;;;;;27.80;4.47;;;11.30;99.90;;;;;;5052654;28;20111;-91
2020/12/11 06:02:07;;;;;;;31.48;4.13;;;11.20;99.90;;;;;;5049720;28;20057;-91
2020/12/11 06:04:48;;;;;;;32.03;4.25;;;11.20;99.90;;;;;;5042540;28;20386;-90
2020/12/11 06:07:25;;;;;;;35.38;4.57;;;11.20;99.90;;;;;;5042215;28;20127;-90
2020/12/11 06:10:00;;;;;;;35.15;4.15;;;11.10;99.90;;;;;;5040975;28;20053;-89
2020/12/11 06:12:37;;;;;;;32.45;4.13;;;11.10;99.90;;;;;;5055635;28;20052;-90
2020/12/11 06:15:32;;;;;;;38.90;4.63;;;11.00;99.90;;;;;;5052337;28;20051;-90
2020/12/11 06:18:11;;;;;;;34.78;5.22;;;11.00;99.90;;;;;;5054384;28;20121;-92
2020/12/11 06:20:51;;;;;;;33.28;5.25;;;11.00;99.90;;;;;;5047194;28;20480;-91
2020/12/11 06:23:34;;;;;;;36.15;5.07;;;11.00;99.90;;;;;;5043190;28;20104;-91
2020/12/11 06:26:13;;;;;;;34.65;5.68;;;11.00;99.90;;;;;;5044014;28;20053;-91
2020/12/11 06:28:59;;;;;;;34.93;5.13;;;11.00;99.90;;;;;;5053655;28;20045;-91
2020/12/11 06:31:49;;;;;;;34.50;4.45;;;11.00;99.90;;;;;;5042816;28;20056;-91
2020/12/11 06:34:26;;;;;;;34.60;4.97;;;11.00;99.90;;;;;;5041670;28;20068;-91
2020/12/11 06:37:01;;;;;;;27.02;4.38;;;11.00;99.90;;;;;;5039618;28;20140;-90
2020/12/11 06:39:43;;;;;;;25.40;3.67;;;11.00;99.90;;;;;;5063621;28;20079;-91
2020/12/11 06:42:39;;;;;;;26.50;3.70;;;11.00;99.90;;;;;;5070294;28;20076;-90
2020/12/11 06:45:17;;;;;;;25.98;3.92;;;10.90;99.90;;;;;;5069572;28;20056;-91
2020/12/11 06:47:57;;;;;;;29.63;4.25;;;10.90;99.90;;;;;;5065982;28;20158;-91
2020/12/11 06:50:40;;;;;;;23.33;3.83;;;10.90;99.90;;;;;;5067674;28;20060;-91
2020/12/11 06:53:43;;;;;;;29.30;3.60;;;10.90;99.90;;;;;;5068748;28;20502;-91
2020/12/11 06:56:43;;;;;;;27.75;4.18;;;10.90;99.90;;;;;;5069830;28;20048;-90
2020/12/11 06:59:29;;;;;;;30.27;4.60;;;10.80;99.90;;;;;;5063478;28;20055;-91
2020/12/11 07:02:05;;;;;;;27.20;4.70;;;10.80;99.90;;;;;;5060596;28;20505;-90
2020/12/11 07:04:41;;;;;;;33.10;4.80;;;10.80;99.90;;;;;;5074095;28;20048;-89
2020/12/11 07:07:22;;;;;;;27.37;4.70;;;10.80;99.90;;;;;;5056134;28;20048;-91
2020/12/11 07:10:00;;;;;;;34.80;4.93;;;10.90;99.90;;;;;;5073342;28;20303;-91
2020/12/11 07:12:35;;;;;;;39.67;5.45;;;10.90;99.90;;;;;;5065140;28;20036;-91
2020/12/11 07:15:32;;;;;;;30.23;4.63;;;10.90;99.90;;;;;;5060541;28;20056;-92
2020/12/11 07:18:18;;;;;;;44.08;5.95;;;10.90;99.90;;;;;;5060069;28;20045;-92
2020/12/11 07:21:02;;;;;;;40.95;5.28;;;10.80;99.90;;;;;;5065677;28;20102;-91
2020/12/11 07:23:51;;;;;;;27.75;4.20;;;10.80;99.90;;;;;;5062178;28;20508;-92
2020/12/11 07:26:27;;;;;;;36.42;5.57;;;10.80;99.90;;;;;;5065824;28;20064;-92
2020/12/11 07:29:15;;;;;;;49.40;6.25;;;10.80;99.90;;;;;;5062256;28;20049;-91
2020/12/11 07:31:53;;;;;;;42.53;6.40;;;10.80;99.90;;;;;;5055296;28;20362;-92
2020/12/11 07:34:34;;;;;;;44.50;7.13;;;10.80;99.90;;;;;;5062821;28;20135;-91
2020/12/11 07:37:18;;;;;;;51.45;6.45;;;10.80;99.90;;;;;;5062031;28;20049;-92
2020/12/11 07:39:56;;;;;;;;;;;10.80;99.90;;;;;;5073479;28;20052;-92
2020/12/11 07:42:37;;;;;;;55.67;6.63;;;10.80;99.90;;;;;;5088693;28;20284;-92
2020/12/11 07:45:30;;;;;;;61.15;6.82;;;10.80;99.90;;;;;;5057732;28;20303;-92
2020/12/11 07:48:09;;;;;;;59.15;8.07;;;10.90;99.90;;;;;;5068072;28;20053;-91
2020/12/11 07:50:47;;;;;;;56.60;8.60;;;10.90;99.90;;;;;;5059254;28;20068;-92
2020/12/11 07:53:22;;;;;;;57.13;7.80;;;10.90;99.90;;;;;;5063993;28;20055;-91
2020/12/11 07:55:57;;;;;;;61.78;9.70;;;11.00;99.90;;;;;;5067503;28;20057;-91
2020/12/11 07:58:31;;;;;;;56.20;7.90;;;11.00;99.90;;;;;;5057504;28;20114;-91
2020/12/11 08:01:09;;;;;;;49.10;7.15;;;11.00;99.90;;;;;;5061233;28;20668;-91
2020/12/11 08:03:43;;;;;;;59.58;7.55;;;11.00;99.90;;;;;;5081410;28;20060;-91
2020/12/11 08:06:17;;;;;;;58.60;6.93;;;11.00;99.90;;;;;;5067103;28;20048;-91
2020/12/11 08:09:00;;;;;;;58.72;8.35;;;11.00;99.90;;;;;;5057140;28;20045;-91
2020/12/11 08:11:36;;;;;;;58.90;8.65;;;11.00;99.90;;;;;;5056033;28;20122;-91
2020/12/11 08:14:15;;;;;;;56.47;7.57;;;11.00;99.90;;;;;;5058074;28;20048;-91
2020/12/11 08:16:50;;;;;;;59.53;7.22;;;11.00;99.90;;;;;;5070165;28;20557;-91
2020/12/11 08:19:27;;;;;;;49.22;7.05;;;11.00;99.90;;;;;;5069816;28;20073;-92
2020/12/11 08:22:21;;;;;;;42.83;5.78;;;11.00;99.90;;;;;;5070590;28;20056;-91
2020/12/11 08:24:58;;;;;;;43.35;6.30;;;11.00;99.90;;;;;;5055531;28;20067;-91
2020/12/11 08:27:31;;;;;;;;;;;10.90;99.90;;;;;;5057542;28;20053;-91
2020/12/11 08:30:14;;;;;;;39.00;5.90;;;10.90;99.90;;;;;;5065848;28;20384;-91
2020/12/11 08:32:48;;;;;;;51.95;5.60;;;10.80;99.90;;;;;;5062200;28;20044;-91
2020/12/11 08:35:26;;;;;;;42.35;7.10;;;10.80;99.90;;;;;;5061277;28;20132;-91
2020/12/11 08:38:12;;;;;;;41.95;6.47;;;10.80;99.90;;;;;;5065876;28;20045;-91
2020/12/11 08:40:52;;;;;;;36.90;5.95;;;10.70;99.90;;;;;;5042112;28;20050;-91
2020/12/11 08:43:40;;;;;;;46.90;6.05;;;10.70;99.90;;;;;;5046456;28;20072;-90
2020/12/11 08:49:41;;;;;;;36.83;5.40;;;10.60;99.90;;;;;;4979968;28;20084;-91
2020/12/11 08:52:17;;;;;;;40.00;5.78;;;10.60;99.90;;;;;;4988476;28;20125;-91
2020/12/11 08:54:56;;;;;;;36.92;5.85;;;10.60;99.90;;;;;;4966258;28;20054;-91
2020/12/11 08:57:34;;;;;;;40.30;5.82;;;10.60;99.90;;;;;;4978057;28;20054;-91
2020/12/11 09:00:09;;;;;;;41.28;6.47;;;10.60;99.90;;;;;;4975059;28;20097;-91
2020/12/11 09:02:48;;;;;;;45.40;6.32;;;10.60;99.90;;;;;;4975366;28;20539;-91
2020/12/11 09:05:31;;;;;;;37.58;5.65;;;10.70;99.90;;;;;;4975990;28;20043;-91
2020/12/11 09:08:04;;;;;;;39.35;6.03;;;10.70;99.90;;;;;;4975457;28;20081;-91
2020/12/11 09:10:38;;;;;;;34.10;5.28;;;10.70;99.90;;;;;;4982514;28;20053;-91
2020/12/11 09:13:16;;;;;;;41.47;6.18;;;10.70;99.90;;;;;;4979654;28;20567;-91
2020/12/11 09:15:58;;;;;;;42.10;5.35;;;10.70;99.90;;;;;;4981088;28;20074;-91
2020/12/11 09:18:33;;;;;;;34.10;5.68;;;10.70;99.90;;;;;;4965554;28;20059;-91
2020/12/11 09:21:12;;;;;;;43.08;6.18;;;10.80;99.90;;;;;;4983842;28;20131;-91
2020/12/11 09:23:52;;;;;;;51.50;6.78;;;10.80;99.90;;;;;;4976697;28;20054;-91
2020/12/11 09:26:33;;;;;;;42.70;6.40;;;10.80;99.90;;;;;;5050985;28;20047;-91
2020/12/11 09:31:47;;;;;;;53.45;7.15;;;10.80;99.90;;;;;;5071867;28;20089;-92
2020/12/11 09:34:24;;;;;;;63.28;7.32;;;10.80;99.90;;;;;;5042388;28;20072;-90
2020/12/11 09:37:00;;;;;;;59.25;7.47;;;10.80;99.90;;;;;;5058703;28;20043;-91
2020/12/11 09:39:35;;;;;;;49.67;6.63;;;10.80;99.90;;;;;;5056601;28;20084;-91
2020/12/11 09:45:09;;;;;;;56.30;8.02;;;10.80;99.90;;;;;;5054405;28;20059;-90
2020/12/11 09:48:03;;;;;;;48.28;7.45;;;10.70;99.90;;;;;;5034977;28;20137;-90
2020/12/11 09:50:53;;;;;;;62.20;7.75;;;10.80;99.90;;;;;;5036198;28;20048;-91
2020/12/11 09:56:10;;;;;;;36.78;6.78;;;10.70;99.90;;;;;;5054271;28;20091;-91
2020/12/11 09:58:53;;;;;;;30.25;4.90;;;10.70;99.90;;;;;;5034752;28;20041;-91
2020/12/11 10:01:43;;;;;;;21.65;3.78;;;10.70;99.90;;;;;;5024414;28;20045;-91
2020/12/11 10:04:17;;;;;;;30.13;4.10;;;10.80;99.90;;;;;;5035806;28;20061;-90
2020/12/11 10:06:51;;;;;;;19.52;3.00;;;10.80;99.90;;;;;;5048987;28;20053;-91
2020/12/11 10:09:28;;;;;;;22.58;3.20;;;10.80;99.90;;;;;;5019741;28;20469;-91
2020/12/11 10:12:03;;;;;;;23.70;4.00;;;10.80;99.90;;;;;;5022544;28;20123;-91
2020/12/11 10:14:44;;;;;;;25.88;4.10;;;10.80;99.90;;;;;;5028375;28;20048;-91
2020/12/11 10:17:18;;;;;;;16.98;2.90;;;10.80;99.90;;;;;;5035945;28;20451;-91
2020/12/11 10:20:00;;;;;;;13.77;2.20;;;10.80;99.90;;;;;;5033752;28;20045;-90
2020/12/11 10:22:34;;;;;;;14.70;2.47;;;10.70;99.90;;;;;;5032801;28;20053;-91
2020/12/11 10:25:13;;;;;;;16.20;2.35;;;10.70;99.90;;;;;;5021955;28;20048;-91
2020/12/11 10:27:55;;;;;;;15.18;2.25;;;10.70;99.90;;;;;;5022138;28;20057;-91
2020/12/11 10:30:29;;;;;;;13.60;2.92;;;10.60;99.90;;;;;;5033016;28;20057;-91
2020/12/11 10:33:08;;;;;;;10.55;1.98;;;10.60;99.90;;;;;;5018269;28;20391;-91
2020/12/11 10:35:45;;;;;;;12.75;2.53;;;10.50;99.90;;;;;;5028727;28;20049;-91
2020/12/11 10:38:20;;;;;;;16.77;2.93;;;10.50;99.90;;;;;;4908761;28;3451929;-91
2020/12/11 10:41:02;;;;;;;14.07;2.40;;;10.50;99.90;;;;;;5042330;28;20052;-90
2020/12/11 10:43:38;;;;;;;15.50;2.38;;;10.60;99.90;;;;;;5048172;28;20053;-90
2020/12/11 10:46:11;;;;;;;21.17;2.45;;;10.60;99.90;;;;;;5056115;28;20449;-90
2020/12/11 10:48:48;;;;;;;21.67;3.08;;;10.60;99.90;;;;;;5055718;28;20534;-91
2020/12/11 10:51:25;;;;;;;20.17;3.05;;;10.60;99.90;;;;;;5051548;28;20051;-91
2020/12/11 10:54:02;;;;;;;20.35;3.58;;;10.70;99.90;;;;;;5053030;28;20044;-91
2020/12/11 10:56:38;;;;;;;18.73;3.50;;;10.70;99.90;;;;;;5051802;28;20052;-91
2020/12/11 10:59:13;;;;;;;25.08;3.38;;;10.80;99.90;;;;;;5052581;28;22020;-91
2020/12/11 11:01:47;;;;;;;21.73;3.53;;;10.90;99.90;;;;;;5053540;28;20048;-91
2020/12/11 11:04:22;;;;;;;25.52;3.65;;;11.00;99.90;;;;;;5057108;28;20096;-91
2020/12/11 11:07:02;;;;;;;25.23;4.45;;;11.00;99.90;;;;;;5040946;28;20071;-91
2020/12/11 11:09:50;;;;;;;17.45;3.10;;;11.00;99.90;;;;;;5055549;28;20050;-91
2020/12/11 11:12:35;;;;;;;20.92;3.65;;;11.00;99.90;;;;;;5057041;28;20064;-91
2020/12/11 11:18:12;;;;;;;24.25;3.78;;;10.90;99.90;;;;;;5067961;28;20102;-91
2020/12/11 11:28:45;;;;;;;24.02;4.05;;;10.90;99.90;;;;;;5057848;28;20048;-91
2020/12/11 11:31:23;;;;;;;22.73;3.72;;;10.90;99.90;;;;;;5042422;28;20486;-91
2020/12/11 11:34:01;;;;;;;29.40;4.10;;;10.90;99.90;;;;;;5055536;28;20057;-90
2020/12/11 11:36:32;;;;;;;21.95;3.70;;;10.90;99.90;;;;;;5042016;28;20065;-90
2020/12/11 11:39:08;;;;;;;16.50;3.75;;;10.90;99.90;;;;;;5046514;28;20057;-91
2020/12/11 11:41:48;;;;;;;21.85;3.88;;;10.90;99.90;;;;;;5058344;28;20053;-91
2020/12/11 11:46:57;;;;;;;22.15;3.55;;;10.90;99.90;;;;;;5058237;28;20056;-90
2020/12/11 11:52:36;;;;;;;34.55;8.77;;;10.90;99.90;;;;;;4970864;28;20050;-91
2020/12/11 11:55:13;;;;;;;30.00;6.53;;;10.90;99.90;;;;;;4958185;28;20049;-91
2020/12/11 11:57:47;;;;;;;22.65;5.85;;;10.90;99.90;;;;;;4957148;28;20067;-91
2020/12/11 12:00:22;;;;;;;30.75;5.13;;;11.00;99.90;;;;;;4977500;28;20058;-92
2020/12/11 12:02:56;;;;;;;26.35;4.78;;;11.00;99.90;;;;;;4971475;28;20564;-91
2020/12/11 12:05:31;;;;;;;26.73;4.80;;;11.10;99.90;;;;;;4960701;28;20517;-91
2020/12/11 12:08:07;;;;;;;29.55;4.55;;;11.20;99.90;;;;;;4961020;28;20133;-91
2020/12/11 12:10:47;;;;;;;23.05;5.55;;;11.20;99.90;;;;;;4984839;28;20061;-91
2020/12/11 12:13:22;;;;;;;31.55;4.82;;;11.20;99.90;;;;;;4960913;28;20159;-90
2020/12/11 12:15:55;;;;;;;35.55;5.13;;;11.30;99.90;;;;;;4959841;28;20505;-90
2020/12/11 12:18:31;;;;;;;28.77;5.25;;;11.30;99.90;;;;;;4974428;28;20154;-91
2020/12/11 12:21:14;;;;;;;30.45;7.03;;;11.40;99.90;;;;;;4956324;28;20050;-91
2020/12/11 12:29:28;;;;;;;29.83;5.28;;;11.60;99.90;;;;;;5012184;28;20051;-91
2020/12/11 12:32:09;;;;;;;38.50;5.90;;;11.80;99.90;;;;;;5060834;28;20044;-91
2020/12/11 12:40:15;;;;;;;31.25;5.50;;;12.10;99.90;;;;;;5055907;28;20128;-86
2020/12/11 12:45:17;;;;;;;38.60;5.53;;;12.10;99.90;;;;;;5068172;28;20095;-91
2020/12/11 12:47:59;;;;;;;41.58;7.28;;;12.10;99.90;;;;;;5065256;28;20060;-92
2020/12/11 12:50:36;;;;;;;22.63;4.05;;;12.00;99.90;;;;;;5058172;28;20045;-92
2020/12/11 12:53:21;;;;;;;22.77;3.92;;;11.90;99.90;;;;;;5057322;28;20068;-92
2020/12/11 12:59:06;;;;;;;18.45;3.67;;;11.60;99.90;;;;;;5066491;28;20128;-92
2020/12/11 13:07:21;;;;;;;20.50;3.47;;;11.50;99.90;;;;;;5055872;28;20057;-92
2020/12/11 13:10:01;;;;;;;22.05;4.40;;;11.40;99.90;;;;;;5066360;28;20052;-93
2020/12/11 13:12:44;;;;;;;28.85;4.88;;;11.30;99.90;;;;;;5057488;28;20048;-92
2020/12/11 13:15:28;;;;;;;29.77;4.95;;;11.30;99.90;;;;;;5056862;28;20045;-92
2020/12/11 13:18:14;;;;;;;31.13;4.63;;;11.30;99.90;;;;;;5070902;28;20369;-92
2020/12/11 13:20:54;;;;;;;32.78;5.40;;;11.30;99.90;;;;;;5060940;28;20045;-92
2020/12/11 13:27:21;;;;;;;39.67;5.37;;;11.30;99.90;;;;;;5063241;28;20107;-92
2020/12/11 13:29:32;;;;;;;43.25;5.53;;;11.40;99.90;;;;;;5058721;28;20394;-92
2020/12/11 13:32:12;;;;;;;39.85;6.97;;;11.40;99.90;;;;;;5052972;28;20049;-91
2020/12/11 13:34:52;;;;;;;40.83;5.72;;;11.40;99.90;;;;;;5059905;28;20429;-91
2020/12/11 13:37:35;;;;;;;25.77;4.60;;;11.40;99.90;;;;;;5060572;28;20128;-92
2020/12/11 13:40:16;;;;;;;20.35;4.20;;;11.40;99.90;;;;;;5075737;28;20449;-92
2020/12/11 13:42:55;;;;;;;18.83;3.65;;;11.30;99.90;;;;;;5057915;28;20053;-91
2020/12/11 13:45:41;;;;;;;12.93;3.28;;;11.20;99.90;;;;;;5074339;28;20056;-92
2020/12/11 13:48:24;;;;;;;12.18;2.13;;;11.10;99.90;;;;;;5066081;28;20530;-92
2020/12/11 13:51:07;;;;;;;13.13;2.40;;;11.10;99.90;;;;;;5067844;28;20179;-86
2020/12/11 13:53:38;;;;;;;12.35;2.90;;;11.00;99.90;;;;;;5057090;28;20053;-87
2020/12/11 13:56:07;;;;;;;21.23;3.75;;;11.00;99.90;;;;;;5058393;28;20064;-86
2020/12/11 13:58:36;;;;;;;19.27;3.22;;;10.90;99.90;;;;;;5058663;28;20442;-88
2020/12/11 14:01:09;;;;;;;26.23;3.92;;;10.90;99.90;;;;;;5070907;28;20509;-87
2020/12/11 14:03:39;;;;;;;30.42;4.10;;;10.80;99.90;;;;;;5071557;28;20064;-87
2020/12/11 14:06:07;;;;;;;32.45;5.10;;;10.80;99.90;;;;;;5058678;28;20045;-87
2020/12/11 14:08:37;;;;;;;34.97;4.72;;;10.80;99.90;;;;;;5055854;28;20403;-85
2020/12/11 14:11:08;;;;;;;23.65;4.47;;;10.80;99.90;;;;;;5058560;28;20049;-86
2020/12/11 14:13:36;;;;;;;28.95;4.72;;;10.80;99.90;;;;;;5070981;28;20045;-87
2020/12/11 14:16:06;;;;;;;26.52;4.80;;;10.80;99.90;;;;;;5071065;28;20045;-86